sensor_id;sensor_type;location;lat;lon;timestamp;temperature;humidity
15048;DHT22;7621;52.350;13.308;2023-02-28T07:05:42;4.10;94.80
15048;DHT22;7621;52.350;13.308;2023-02-28T07:08:08;4.10;94.50
15048;DHT22;7621;52.350;13.308;2023-02-28T07:10:37;4.00;94.40
15048;DHT22;7621;52.350;13.308;2023-02-28T07:13:05;4.00;94.30
15048;DHT22;7621;52.350;13.308;2023-02-28T07:15:31;4.00;94.30
15048;DHT22;7621;52.350;13.308;2023-02-28T07:17:57;3.90;94.30
15048;DHT22;7621;52.350;13.308;2023-02-28T07:20:23;3.90;94.50
15048;DHT22;7621;52.350;13.308;2023-02-28T07:22:49;3.90;94.80
15048;DHT22;7621;52.350;13.308;2023-02-28T07:25:25;4.00;95.00
15048;DHT22;7621;52.350;13.308;2023-02-28T07:27:51;4.20;95.00
15048;DHT22;7621;52.350;13.308;2023-02-28T07:30:17;4.20;94.80
15048;DHT22;7621;52.350;13.308;2023-02-28T07:32:42;4.50;95.10
15048;DHT22;7621;52.350;13.308;2023-02-28T07:35:08;4.90;95.40
15048;DHT22;7621;52.350;13.308;2023-02-28T07:37:34;5.50;95.50
15048;DHT22;7621;52.350;13.308;2023-02-28T07:40:06;6.20;95.00
15048;DHT22;7621;52.350;13.308;2023-02-28T07:42:34;7.00;93.90
15048;DHT22;7621;52.350;13.308;2023-02-28T07:45:00;7.60;92.70
15048;DHT22;7621;52.350;13.308;2023-02-28T07:47:26;8.30;91.10
15048;DHT22;7621;52.350;13.308;2023-02-28T07:49:51;8.80;89.50
15048;DHT22;7621;52.350;13.308;2023-02-28T07:52:17;9.30;86.60
15048;DHT22;7621;52.350;13.308;2023-02-28T07:54:43;9.70;83.50
15048;DHT22;7621;52.350;13.308;2023-02-28T07:57:09;10.10;81.30
15048;DHT22;7621;52.350;13.308;2023-02-28T07:59:34;10.40;79.80
15048;DHT22;7621;52.350;13.308;2023-02-28T08:02:00;10.80;77.50
15048;DHT22;7621;52.350;13.308;2023-02-28T08:04:25;11.10;75.00
15048;DHT22;7621;52.350;13.308;2023-02-28T08:06:51;11.30;73.60
15048;DHT22;7621;52.350;13.308;2023-02-28T08:09:21;11.70;72.10
15048;DHT22;7621;52.350;13.308;2023-02-28T08:11:47;11.90;70.50
15048;DHT22;7621;52.350;13.308;2023-02-28T08:14:12;12.00;68.90
15048;DHT22;7621;52.350;13.308;2023-02-28T08:16:38;12.20;67.70
15048;DHT22;7621;52.350;13.308;2023-02-28T08:19:04;12.50;66.60
15048;DHT22;7621;52.350;13.308;2023-02-28T08:21:30;12.60;62.20
15048;DHT22;7621;52.350;13.308;2023-02-28T08:23:55;12.70;61.20
15048;DHT22;7621;52.350;13.308;2023-02-28T08:26:22;12.90;61.50
15048;DHT22;7621;52.350;13.308;2023-02-28T08:28:48;13.00;60.20
15048;DHT22;7621;52.350;13.308;2023-02-28T08:31:15;13.10;59.00
15048;DHT22;7621;52.350;13.308;2023-02-28T08:33:42;13.30;58.90
15048;DHT22;7621;52.350;13.308;2023-02-28T08:36:08;13.50;55.20
15048;DHT22;7621;52.350;13.308;2023-02-28T08:38:35;13.60;54.60
15048;DHT22;7621;52.350;13.308;2023-02-28T08:41:03;13.90;53.70
15048;DHT22;7621;52.350;13.308;2023-02-28T08:43:31;14.40;52.40
15048;DHT22;7621;52.350;13.308;2023-02-28T08:45:56;15.10;49.70
15048;DHT22;7621;52.350;13.308;2023-02-28T08:48:27;15.80;48.30
15048;DHT22;7621;52.350;13.308;2023-02-28T08:51:04;16.70;46.50
15048;DHT22;7621;52.350;13.308;2023-02-28T08:53:30;17.60;44.20
15048;DHT22;7621;52.350;13.308;2023-02-28T08:56:07;18.50;42.50
15048;DHT22;7621;52.350;13.308;2023-02-28T08:58:33;19.40;39.60
15048;DHT22;7621;52.350;13.308;2023-02-28T09:01:00;20.10;36.90
15048;DHT22;7621;52.350;13.308;2023-02-28T09:03:32;20.70;36.70
15048;DHT22;7621;52.350;13.308;2023-02-28T09:05:59;21.40;34.70
15048;DHT22;7621;52.350;13.308;2023-02-28T09:08:27;21.60;33.40
15048;DHT22;7621;52.350;13.308;2023-02-28T09:10:53;22.00;32.60
15048;DHT22;7621;52.350;13.308;2023-02-28T09:13:19;22.30;32.60
15048;DHT22;7621;52.350;13.308;2023-02-28T09:15:45;23.00;32.70
15048;DHT22;7621;52.350;13.308;2023-02-28T09:18:11;23.80;31.10
15048;DHT22;7621;52.350;13.308;2023-02-28T09:20:38;24.30;29.90
15048;DHT22;7621;52.350;13.308;2023-02-28T09:23:05;24.70;29.00
15048;DHT22;7621;52.350;13.308;2023-02-28T09:25:31;25.00;27.90
15048;DHT22;7621;52.350;13.308;2023-02-28T09:27:56;25.30;27.50
15048;DHT22;7621;52.350;13.308;2023-02-28T09:30:22;25.40;26.90
15048;DHT22;7621;52.350;13.308;2023-02-28T09:32:47;25.20;27.20
15048;DHT22;7621;52.350;13.308;2023-02-28T09:35:18;25.00;26.50
15048;DHT22;7621;52.350;13.308;2023-02-28T09:37:43;24.30;27.40
15048;DHT22;7621;52.350;13.308;2023-02-28T09:40:10;24.40;27.50
15048;DHT22;7621;52.350;13.308;2023-02-28T09:42:37;25.00;27.20
15048;DHT22;7621;52.350;13.308;2023-02-28T09:45:29;25.70;27.30
15048;DHT22;7621;52.350;13.308;2023-02-28T09:47:56;26.10;26.60
15048;DHT22;7621;52.350;13.308;2023-02-28T09:50:38;26.70;27.20
15048;DHT22;7621;52.350;13.308;2023-02-28T09:56:02;27.40;24.90
15048;DHT22;7621;52.350;13.308;2023-02-28T09:58:47;27.40;25.30
15048;DHT22;7621;52.350;13.308;2023-02-28T10:02:27;27.80;25.90
15048;DHT22;7621;52.350;13.308;2023-02-28T10:04:47;28.50;25.80
15048;DHT22;7621;52.350;13.308;2023-02-28T10:10:29;28.10;24.30
15048;DHT22;7621;52.350;13.308;2023-02-28T10:12:59;27.50;24.20
15048;DHT22;7621;52.350;13.308;2023-02-28T10:15:28;27.00;25.00
15048;DHT22;7621;52.350;13.308;2023-02-28T10:17:58;26.70;25.60
15048;DHT22;7621;52.350;13.308;2023-02-28T10:20:26;26.50;26.00
15048;DHT22;7621;52.350;13.308;2023-02-28T10:25:59;25.50;26.20
15048;DHT22;7621;52.350;13.308;2023-02-28T10:28:26;25.10;26.60
15048;DHT22;7621;52.350;13.308;2023-02-28T10:30:54;24.50;26.30
15048;DHT22;7621;52.350;13.308;2023-02-28T10:33:24;23.30;26.90
15048;DHT22;7621;52.350;13.308;2023-02-28T10:35:52;22.30;28.20
15048;DHT22;7621;52.350;13.308;2023-02-28T10:38:21;21.40;29.40
15048;DHT22;7621;52.350;13.308;2023-02-28T10:40:47;20.50;30.00
15048;DHT22;7621;52.350;13.308;2023-02-28T10:45:39;19.00;31.80
15048;DHT22;7621;52.350;13.308;2023-02-28T10:50:52;17.30;33.50
15048;DHT22;7621;52.350;13.308;2023-02-28T10:56:15;15.80;36.30
15048;DHT22;7621;52.350;13.308;2023-02-28T11:01:40;14.80;38.90
15048;DHT22;7621;52.350;13.308;2023-02-28T11:04:35;14.60;40.00
15048;DHT22;7621;52.350;13.308;2023-02-28T11:07:17;14.20;40.30
15048;DHT22;7621;52.350;13.308;2023-02-28T11:09:46;13.80;40.80
15048;DHT22;7621;52.350;13.308;2023-02-28T11:12:37;13.50;41.20
15048;DHT22;7621;52.350;13.308;2023-02-28T11:18:05;13.00;41.40
15048;DHT22;7621;52.350;13.308;2023-02-28T11:20:33;12.80;42.00
15048;DHT22;7621;52.350;13.308;2023-02-28T11:23:01;12.70;43.50
15048;DHT22;7621;52.350;13.308;2023-02-28T11:25:37;12.70;44.30
15048;DHT22;7621;52.350;13.308;2023-02-28T11:28:05;12.50;44.10
15048;DHT22;7621;52.350;13.308;2023-02-28T11:30:37;12.40;43.80
15048;DHT22;7621;52.350;13.308;2023-02-28T11:33:28;12.30;44.70
15048;DHT22;7621;52.350;13.308;2023-02-28T11:36:03;12.30;44.80
15048;DHT22;7621;52.350;13.308;2023-02-28T11:38:29;12.20;44.80
15048;DHT22;7621;52.350;13.308;2023-02-28T11:44:03;11.90;45.40
15048;DHT22;7621;52.350;13.308;2023-02-28T11:46:39;11.60;45.90
15048;DHT22;7621;52.350;13.308;2023-02-28T11:49:16;11.20;45.50
15048;DHT22;7621;52.350;13.308;2023-02-28T11:59:51;10.40;47.50
15048;DHT22;7621;52.350;13.308;2023-02-28T12:07:37;10.10;49.00
15048;DHT22;7621;52.350;13.308;2023-02-28T12:10:22;10.10;49.70
15048;DHT22;7621;52.350;13.308;2023-02-28T12:15:56;10.20;48.40
15048;DHT22;7621;52.350;13.308;2023-02-28T12:31:43;9.50;49.90
15048;DHT22;7621;52.350;13.308;2023-02-28T12:34:15;9.30;50.30
15048;DHT22;7621;52.350;13.308;2023-02-28T12:36:42;9.20;50.30
15048;DHT22;7621;52.350;13.308;2023-02-28T12:39:23;9.10;50.80
15048;DHT22;7621;52.350;13.308;2023-02-28T12:44:55;9.00;50.90
15048;DHT22;7621;52.350;13.308;2023-02-28T12:47:22;9.10;51.80
15048;DHT22;7621;52.350;13.308;2023-02-28T12:50:05;9.20;51.80
15048;DHT22;7621;52.350;13.308;2023-02-28T12:55:28;9.30;52.20
15048;DHT22;7621;52.350;13.308;2023-02-28T13:06:29;9.00;52.00
15048;DHT22;7621;52.350;13.308;2023-02-28T13:09:11;9.00;51.90
15048;DHT22;7621;52.350;13.308;2023-02-28T13:11:39;9.00;51.80
15048;DHT22;7621;52.350;13.308;2023-02-28T13:14:16;9.00;51.90
15048;DHT22;7621;52.350;13.308;2023-02-28T13:19:24;9.10;51.50
15048;DHT22;7621;52.350;13.308;2023-02-28T13:21:51;9.30;51.60
15048;DHT22;7621;52.350;13.308;2023-02-28T13:29:35;9.40;51.70
15048;DHT22;7621;52.350;13.308;2023-02-28T13:34:34;9.50;52.00
15048;DHT22;7621;52.350;13.308;2023-02-28T13:42:34;9.30;51.40
15048;DHT22;7621;52.350;13.308;2023-02-28T13:47:45;8.90;51.60
15048;DHT22;7621;52.350;13.308;2023-02-28T13:58:46;8.50;53.50
15048;DHT22;7621;52.350;13.308;2023-02-28T14:01:27;8.50;52.70
15048;DHT22;7621;52.350;13.308;2023-02-28T14:04:02;8.40;53.00
15048;DHT22;7621;52.350;13.308;2023-02-28T14:06:33;8.30;53.10
15048;DHT22;7621;52.350;13.308;2023-02-28T14:09:03;8.20;53.30
15048;DHT22;7621;52.350;13.308;2023-02-28T14:11:35;8.10;53.30
15048;DHT22;7621;52.350;13.308;2023-02-28T14:14:02;8.10;54.40
15048;DHT22;7621;52.350;13.308;2023-02-28T14:16:49;8.00;54.30
15048;DHT22;7621;52.350;13.308;2023-02-28T14:19:27;8.00;54.50
15048;DHT22;7621;52.350;13.308;2023-02-28T14:27:42;8.00;54.60
15048;DHT22;7621;52.350;13.308;2023-02-28T14:38:19;7.70;55.80
15048;DHT22;7621;52.350;13.308;2023-02-28T14:40:47;7.60;56.10
15048;DHT22;7621;52.350;13.308;2023-02-28T14:43:23;7.50;55.80
15048;DHT22;7621;52.350;13.308;2023-02-28T14:45:54;7.50;55.30
15048;DHT22;7621;52.350;13.308;2023-02-28T14:48:21;7.50;55.80
15048;DHT22;7621;52.350;13.308;2023-02-28T14:50:59;7.40;56.40
15048;DHT22;7621;52.350;13.308;2023-02-28T14:53:28;7.40;57.00
15048;DHT22;7621;52.350;13.308;2023-02-28T14:55:54;7.30;57.00
15048;DHT22;7621;52.350;13.308;2023-02-28T14:58:29;7.20;57.20
15048;DHT22;7621;52.350;13.308;2023-02-28T15:00:57;7.20;57.40
15048;DHT22;7621;52.350;13.308;2023-02-28T15:03:44;7.10;57.40
15048;DHT22;7621;52.350;13.308;2023-02-28T15:06:17;7.10;57.30
15048;DHT22;7621;52.350;13.308;2023-02-28T15:08:44;7.00;57.90
15048;DHT22;7621;52.350;13.308;2023-02-28T15:11:17;6.90;57.80
15048;DHT22;7621;52.350;13.308;2023-02-28T15:13:52;6.80;58.40
15048;DHT22;7621;52.350;13.308;2023-02-28T15:18:53;6.80;57.80
15048;DHT22;7621;52.350;13.308;2023-02-28T15:21:37;6.80;57.90
15048;DHT22;7621;52.350;13.308;2023-02-28T15:24:08;6.80;58.10
15048;DHT22;7621;52.350;13.308;2023-02-28T15:26:39;6.70;58.90
15048;DHT22;7621;52.350;13.308;2023-02-28T15:29:11;6.70;58.80
15048;DHT22;7621;52.350;13.308;2023-02-28T15:32:03;6.70;58.60
15048;DHT22;7621;52.350;13.308;2023-02-28T15:34:39;6.60;58.40
15048;DHT22;7621;52.350;13.308;2023-02-28T15:37:25;6.60;58.30
15048;DHT22;7621;52.350;13.308;2023-02-28T15:39:53;6.60;58.30
15048;DHT22;7621;52.350;13.308;2023-02-28T15:42:21;6.60;58.60
15048;DHT22;7621;52.350;13.308;2023-02-28T15:44:48;6.60;58.90
15048;DHT22;7621;52.350;13.308;2023-02-28T15:47:22;6.60;58.50
15048;DHT22;7621;52.350;13.308;2023-02-28T15:49:54;6.60;58.60
15048;DHT22;7621;52.350;13.308;2023-02-28T15:54:59;6.50;58.80
15048;DHT22;7621;52.350;13.308;2023-02-28T15:57:32;6.50;59.20
15048;DHT22;7621;52.350;13.308;2023-02-28T16:00:01;6.40;59.30
15048;DHT22;7621;52.350;13.308;2023-02-28T16:02:36;6.40;59.00
15048;DHT22;7621;52.350;13.308;2023-02-28T16:05:26;6.30;59.40
15048;DHT22;7621;52.350;13.308;2023-02-28T16:08:06;6.30;59.60
15048;DHT22;7621;52.350;13.308;2023-02-28T16:10:36;6.20;59.40
15048;DHT22;7621;52.350;13.308;2023-02-28T16:13:02;6.20;60.00
15048;DHT22;7621;52.350;13.308;2023-02-28T16:15:29;6.10;61.10
15048;DHT22;7621;52.350;13.308;2023-02-28T16:17:56;6.10;61.00
15048;DHT22;7621;52.350;13.308;2023-02-28T16:20:28;6.10;61.40
15048;DHT22;7621;52.350;13.308;2023-02-28T16:22:54;6.00;61.40
15048;DHT22;7621;52.350;13.308;2023-02-28T16:25:36;6.00;61.40
15048;DHT22;7621;52.350;13.308;2023-02-28T16:28:02;5.90;61.70
15048;DHT22;7621;52.350;13.308;2023-02-28T16:30:28;5.90;61.90
15048;DHT22;7621;52.350;13.308;2023-02-28T16:32:58;5.80;62.10
15048;DHT22;7621;52.350;13.308;2023-02-28T16:35:24;5.70;62.50
15048;DHT22;7621;52.350;13.308;2023-02-28T16:37:53;5.70;62.80
15048;DHT22;7621;52.350;13.308;2023-02-28T16:40:25;5.60;63.50
15048;DHT22;7621;52.350;13.308;2023-02-28T16:42:53;5.60;64.40
15048;DHT22;7621;52.350;13.308;2023-02-28T16:45:26;5.50;64.80
15048;DHT22;7621;52.350;13.308;2023-02-28T16:47:52;5.40;65.20
15048;DHT22;7621;52.350;13.308;2023-02-28T16:50:24;5.30;65.70
15048;DHT22;7621;52.350;13.308;2023-02-28T16:52:50;5.30;66.50
15048;DHT22;7621;52.350;13.308;2023-02-28T16:55:18;5.20;67.40
15048;DHT22;7621;52.350;13.308;2023-02-28T16:57:55;5.10;67.80
15048;DHT22;7621;52.350;13.308;2023-02-28T17:00:22;5.00;68.40
15048;DHT22;7621;52.350;13.308;2023-02-28T17:02:47;5.00;68.70
15048;DHT22;7621;52.350;13.308;2023-02-28T17:05:13;4.90;69.20
15048;DHT22;7621;52.350;13.308;2023-02-28T17:07:41;4.80;69.80
15048;DHT22;7621;52.350;13.308;2023-02-28T17:10:17;4.70;70.20
15048;DHT22;7621;52.350;13.308;2023-02-28T17:12:43;4.60;70.80
15048;DHT22;7621;52.350;13.308;2023-02-28T17:15:13;4.60;71.10
15048;DHT22;7621;52.350;13.308;2023-02-28T17:17:39;4.50;71.60
15048;DHT22;7621;52.350;13.308;2023-02-28T17:20:05;4.40;71.90
15048;DHT22;7621;52.350;13.308;2023-02-28T17:22:32;4.30;72.10
15048;DHT22;7621;52.350;13.308;2023-02-28T17:24:57;4.30;72.60
15048;DHT22;7621;52.350;13.308;2023-02-28T17:27:24;4.20;73.20
15048;DHT22;7621;52.350;13.308;2023-02-28T17:29:50;4.20;73.40
15048;DHT22;7621;52.350;13.308;2023-02-28T17:32:16;4.10;73.50
15048;DHT22;7621;52.350;13.308;2023-02-28T17:34:41;4.00;73.70
15048;DHT22;7621;52.350;13.308;2023-02-28T17:37:08;4.00;73.80
15048;DHT22;7621;52.350;13.308;2023-02-28T17:39:34;3.90;74.20
15048;DHT22;7621;52.350;13.308;2023-02-28T17:41:59;3.80;74.70
15048;DHT22;7621;52.350;13.308;2023-02-28T17:44:25;3.80;75.30
15048;DHT22;7621;52.350;13.308;2023-02-28T17:46:51;3.70;75.70
15048;DHT22;7621;52.350;13.308;2023-02-28T17:49:18;3.70;75.60
15048;DHT22;7621;52.350;13.308;2023-02-28T17:51:44;3.60;75.50
15048;DHT22;7621;52.350;13.308;2023-02-28T17:54:09;3.60;75.70
15048;DHT22;7621;52.350;13.308;2023-02-28T17:56:35;3.50;75.70
15048;DHT22;7621;52.350;13.308;2023-02-28T17:59:01;3.50;76.10
15048;DHT22;7621;52.350;13.308;2023-02-28T18:01:27;3.40;76.40
15048;DHT22;7621;52.350;13.308;2023-02-28T18:03:53;3.40;76.70
15048;DHT22;7621;52.350;13.308;2023-02-28T18:08:49;3.20;77.30
15048;DHT22;7621;52.350;13.308;2023-02-28T18:11:17;3.20;77.70
15048;DHT22;7621;52.350;13.308;2023-02-28T18:13:49;3.10;78.00
15048;DHT22;7621;52.350;13.308;2023-02-28T18:16:16;3.10;78.40
15048;DHT22;7621;52.350;13.308;2023-02-28T18:18:42;3.00;78.60
15048;DHT22;7621;52.350;13.308;2023-02-28T18:21:10;3.00;78.90
15048;DHT22;7621;52.350;13.308;2023-02-28T18:23:36;2.90;79.30
15048;DHT22;7621;52.350;13.308;2023-02-28T18:26:06;2.90;79.60
15048;DHT22;7621;52.350;13.308;2023-02-28T18:28:32;2.80;80.50
15048;DHT22;7621;52.350;13.308;2023-02-28T18:31:08;2.80;80.10
15048;DHT22;7621;52.350;13.308;2023-02-28T18:33:34;2.70;80.30
15048;DHT22;7621;52.350;13.308;2023-02-28T18:36:00;2.70;80.80
15048;DHT22;7621;52.350;13.308;2023-02-28T18:38:25;2.60;81.10
15048;DHT22;7621;52.350;13.308;2023-02-28T18:40:52;2.60;81.30
15048;DHT22;7621;52.350;13.308;2023-02-28T18:43:18;2.50;81.60
15048;DHT22;7621;52.350;13.308;2023-02-28T18:45:44;2.50;82.50
15048;DHT22;7621;52.350;13.308;2023-02-28T18:48:09;2.50;82.10
15048;DHT22;7621;52.350;13.308;2023-02-28T18:50:38;2.40;82.30
15048;DHT22;7621;52.350;13.308;2023-02-28T18:53:04;2.40;82.60
15048;DHT22;7621;52.350;13.308;2023-02-28T18:55:33;2.30;82.60
15048;DHT22;7621;52.350;13.308;2023-02-28T18:57:59;2.30;82.90
15048;DHT22;7621;52.350;13.308;2023-02-28T19:00:24;2.20;83.20
15048;DHT22;7621;52.350;13.308;2023-02-28T19:02:51;2.20;83.40
15048;DHT22;7621;52.350;13.308;2023-02-28T19:05:17;2.20;83.60
15048;DHT22;7621;52.350;13.308;2023-02-28T19:07:44;2.10;83.90
15048;DHT22;7621;52.350;13.308;2023-02-28T19:10:10;2.10;84.10
15048;DHT22;7621;52.350;13.308;2023-02-28T19:12:37;2.00;84.10
15048;DHT22;7621;52.350;13.308;2023-02-28T19:15:05;2.00;84.20
15048;DHT22;7621;52.350;13.308;2023-02-28T19:17:31;1.90;84.50
15048;DHT22;7621;52.350;13.308;2023-02-28T19:19:57;1.90;84.70
15048;DHT22;7621;52.350;13.308;2023-02-28T19:22:22;1.90;84.90
15048;DHT22;7621;52.350;13.308;2023-02-28T19:24:49;1.90;85.70
15048;DHT22;7621;52.350;13.308;2023-02-28T19:27:15;1.80;85.10
15048;DHT22;7621;52.350;13.308;2023-02-28T19:29:51;1.80;85.10
15048;DHT22;7621;52.350;13.308;2023-02-28T19:32:18;1.80;85.30
15048;DHT22;7621;52.350;13.308;2023-02-28T19:34:44;1.80;85.40
15048;DHT22;7621;52.350;13.308;2023-02-28T19:37:10;1.80;85.60
15048;DHT22;7621;52.350;13.308;2023-02-28T19:39:36;1.70;85.70
15048;DHT22;7621;52.350;13.308;2023-02-28T19:42:08;1.70;86.00
15048;DHT22;7621;52.350;13.308;2023-02-28T19:44:34;1.70;86.30
15048;DHT22;7621;52.350;13.308;2023-02-28T19:47:00;1.60;86.30
15048;DHT22;7621;52.350;13.308;2023-02-28T19:49:25;1.60;86.40
15048;DHT22;7621;52.350;13.308;2023-02-28T19:51:51;1.60;86.70
15048;DHT22;7621;52.350;13.308;2023-02-28T19:54:17;1.50;86.80
15048;DHT22;7621;52.350;13.308;2023-02-28T19:56:42;1.50;87.10
15048;DHT22;7621;52.350;13.308;2023-02-28T19:59:07;1.50;87.40
15048;DHT22;7621;52.350;13.308;2023-02-28T20:01:33;1.40;87.70
15048;DHT22;7621;52.350;13.308;2023-02-28T20:03:58;1.40;87.90
15048;DHT22;7621;52.350;13.308;2023-02-28T20:06:24;1.40;88.20
15048;DHT22;7621;52.350;13.308;2023-02-28T20:08:53;1.40;88.40
15048;DHT22;7621;52.350;13.308;2023-02-28T20:11:18;1.40;88.60
15048;DHT22;7621;52.350;13.308;2023-02-28T20:13:44;1.30;88.80
15048;DHT22;7621;52.350;13.308;2023-02-28T20:16:11;1.30;89.70
15048;DHT22;7621;52.350;13.308;2023-02-28T20:18:38;1.30;89.20
15048;DHT22;7621;52.350;13.308;2023-02-28T20:21:06;1.20;89.20
15048;DHT22;7621;52.350;13.308;2023-02-28T20:23:32;1.20;89.30
15048;DHT22;7621;52.350;13.308;2023-02-28T20:25:58;1.20;89.40
15048;DHT22;7621;52.350;13.308;2023-02-28T20:28:24;1.20;89.40
15048;DHT22;7621;52.350;13.308;2023-02-28T20:30:50;1.10;89.30
15048;DHT22;7621;52.350;13.308;2023-02-28T20:33:16;1.10;89.50
15048;DHT22;7621;52.350;13.308;2023-02-28T20:35:43;1.10;89.70
15048;DHT22;7621;52.350;13.308;2023-02-28T20:38:09;1.10;90.00
